createdAt,value
2023-05-08T05:03:06.407Z,513.00
2023-05-08T05:04:06.417Z,509.00
2023-05-08T05:05:07.421Z,508.00
2023-05-08T05:06:06.425Z,509.00
2023-05-08T05:07:07.467Z,506.00
2023-05-08T05:08:06.522Z,507.00
2023-05-08T05:09:07.531Z,507.00
2023-05-08T05:10:07.536Z,505.00
2023-05-08T05:11:06.559Z,509.00
2023-05-08T05:12:07.634Z,511.00
2023-05-08T05:13:06.747Z,512.00
2023-05-08T05:14:07.718Z,511.00
2023-05-08T05:15:07.769Z,513.00
2023-05-08T05:16:07.839Z,513.00
2023-05-08T05:17:06.839Z,514.00
2023-05-08T05:18:06.971Z,515.00
2023-05-08T05:19:06.924Z,512.00
2023-05-08T05:20:06.960Z,511.00
2023-05-08T05:21:07.978Z,510.00
2023-05-08T05:22:07.995Z,507.00
2023-05-08T05:23:08.040Z,506.00
2023-05-08T05:24:08.067Z,507.00
2023-05-08T05:25:08.081Z,507.00
2023-05-08T05:26:07.114Z,508.00
2023-05-08T05:27:08.137Z,510.00
2023-05-08T05:28:07.138Z,511.00
2023-05-08T05:29:08.167Z,510.00
2023-05-08T05:30:07.195Z,509.00
2023-05-08T05:31:07.245Z,509.00
2023-05-08T05:32:07.253Z,508.00
2023-05-08T05:33:07.318Z,510.00
2023-05-08T05:34:08.284Z,511.00
2023-05-08T05:35:07.415Z,513.00
2023-05-08T05:36:08.345Z,514.00
2023-05-08T05:37:08.361Z,512.00
2023-05-08T05:38:08.457Z,509.00
2023-05-08T05:39:08.427Z,506.00
2023-05-08T05:40:08.448Z,509.00
2023-05-08T05:41:07.464Z,508.00
2023-05-08T05:42:08.500Z,509.00
2023-05-08T05:43:08.536Z,510.00
2023-05-08T05:44:08.560Z,511.00
2023-05-08T05:45:08.645Z,512.00
2023-05-08T05:46:08.682Z,509.00
2023-05-08T05:47:07.720Z,507.00
2023-05-08T05:48:08.734Z,503.00
2023-05-08T05:49:07.745Z,505.00
2023-05-08T05:50:08.775Z,506.00
2023-05-08T05:51:08.941Z,504.00
2023-05-08T05:52:07.850Z,502.00
2023-05-08T05:53:08.886Z,501.00
2023-05-08T05:54:07.972Z,500.00
2023-05-08T05:55:07.970Z,500.00
2023-05-08T05:56:08.075Z,499.00
2023-05-08T05:57:08.029Z,501.00
2023-05-08T05:58:09.125Z,501.00
2023-05-08T05:59:09.134Z,502.00
2023-05-08T06:00:09.172Z,500.00
2023-05-08T06:01:08.249Z,503.00
2023-05-08T06:02:08.245Z,503.00
2023-05-08T06:03:08.407Z,508.00
2023-05-08T06:04:08.424Z,519.00
2023-05-08T06:05:09.368Z,537.00
2023-05-08T06:06:08.388Z,636.00
2023-05-08T06:07:09.396Z,646.00
2023-05-08T06:08:09.458Z,656.00
2023-05-08T06:09:08.419Z,665.00
2023-05-08T06:10:08.509Z,715.00
2023-05-08T06:11:08.456Z,740.00
2023-05-08T06:12:08.435Z,745.00
2023-05-08T06:13:08.445Z,766.00
2023-05-08T06:14:08.458Z,808.00
2023-05-08T06:15:08.454Z,820.00
2023-05-08T06:16:08.402Z,809.00
2023-05-08T06:17:09.528Z,814.00
2023-05-08T06:18:08.522Z,823.00
2023-05-08T06:19:08.515Z,856.00
2023-05-08T06:20:08.558Z,843.00
2023-05-08T06:21:08.625Z,854.00
2023-05-08T06:22:08.582Z,854.00
2023-05-08T06:23:08.704Z,862.00
2023-05-08T06:24:09.677Z,881.00
2023-05-08T06:25:09.912Z,891.00
2023-05-08T06:26:08.781Z,889.00
2023-05-08T06:27:08.809Z,891.00
2023-05-08T06:28:09.864Z,889.00
2023-05-08T06:29:08.913Z,886.00
2023-05-08T06:30:09.945Z,893.00
2023-05-08T06:31:09.990Z,899.00
2023-05-08T06:32:09.997Z,904.00
2023-05-08T06:33:10.034Z,910.00
2023-05-08T06:34:10.026Z,915.00
2023-05-08T06:35:09.167Z,926.00
2023-05-08T06:36:09.182Z,937.00
2023-05-08T06:37:09.218Z,944.00
2023-05-08T06:38:10.285Z,969.00
2023-05-08T06:39:09.360Z,970.00
2023-05-08T06:40:12.291Z,973.00
2023-05-08T06:41:10.345Z,977.00
2023-05-08T06:42:10.385Z,984.00
2023-05-08T06:43:10.353Z,997.00
2023-05-08T06:44:10.380Z,1002.00
2023-05-08T06:45:10.648Z,1019.00
2023-05-08T06:46:10.349Z,1029.00
2023-05-08T06:47:10.306Z,1044.00
2023-05-08T06:48:09.331Z,1062.00
2023-05-08T06:49:09.322Z,1068.00
2023-05-08T06:50:10.297Z,1072.00
2023-05-08T06:51:09.385Z,1075.00
2023-05-08T06:52:09.306Z,1077.00
2023-05-08T06:53:10.285Z,1075.00
2023-05-08T06:54:09.271Z,1073.00
2023-05-08T06:55:10.436Z,1069.00
2023-05-08T06:56:09.279Z,1069.00
2023-05-08T06:57:09.289Z,1071.00
2023-05-08T06:58:10.417Z,1070.00
2023-05-08T06:59:09.483Z,1067.00
2023-05-08T07:00:09.196Z,1118.00
2023-05-08T07:01:09.265Z,1156.00
2023-05-08T07:02:10.254Z,1176.00
2023-05-08T07:03:09.369Z,1192.00
2023-05-08T07:04:10.274Z,1220.00
2023-05-08T07:05:09.300Z,1230.00
2023-05-08T07:06:09.397Z,1253.00
2023-05-08T07:07:09.387Z,1275.00
2023-05-08T07:08:09.435Z,1268.00
2023-05-08T07:09:10.525Z,1342.00
2023-05-08T07:10:09.547Z,1342.00
2023-05-08T07:11:10.720Z,1343.00
2023-05-08T07:12:09.643Z,1342.00
2023-05-08T07:13:09.799Z,1357.00
2023-05-08T07:14:10.697Z,1357.00
2023-05-08T07:15:24.666Z,1335.00
2023-05-08T07:16:10.781Z,1294.00
2023-05-08T07:17:09.774Z,1304.00
2023-05-08T07:18:09.764Z,1338.00
2023-05-08T07:19:10.770Z,1349.00
2023-05-08T07:20:10.713Z,1353.00
2023-05-08T07:21:10.716Z,1354.00
2023-05-08T07:22:09.872Z,1339.00
2023-05-08T07:23:09.686Z,1343.00
2023-05-08T07:24:09.687Z,1350.00
2023-05-08T07:25:10.872Z,1349.00
2023-05-08T07:26:09.685Z,1357.00
2023-05-08T07:27:10.794Z,1375.00
2023-05-08T07:28:09.793Z,1418.00
2023-05-08T07:29:10.678Z,1434.00
2023-05-08T07:30:09.905Z,1457.00
2023-05-08T07:31:09.724Z,1466.00
2023-05-08T07:32:10.637Z,1486.00
2023-05-08T07:33:10.791Z,1538.00
2023-05-08T07:34:09.648Z,1546.00
2023-05-08T07:35:10.746Z,1556.00
2023-05-08T07:36:09.596Z,1557.00
2023-05-08T07:37:10.663Z,1558.00
2023-05-08T07:38:09.581Z,1565.00
2023-05-08T07:39:09.594Z,1569.00
2023-05-08T07:40:10.574Z,1576.00
2023-05-08T07:41:09.645Z,1582.00
2023-05-08T07:42:09.553Z,1592.00
2023-05-08T07:43:10.678Z,1634.00
2023-05-08T07:44:10.556Z,1699.00
2023-05-08T07:45:09.522Z,1717.00
2023-05-08T07:46:10.539Z,1725.00
2023-05-08T07:47:09.611Z,1738.00
2023-05-08T07:48:10.805Z,1736.00
2023-05-08T07:49:09.516Z,1719.00
2023-05-08T07:50:09.801Z,1690.00
2023-05-08T07:51:09.525Z,1682.00
2023-05-08T07:52:10.504Z,1681.00
2023-05-08T07:53:09.485Z,1673.00
2023-05-08T07:54:09.473Z,1668.00
2023-05-08T07:55:10.665Z,1665.00
2023-05-08T07:56:09.447Z,1669.00
2023-05-08T07:57:09.565Z,1673.00
2023-05-08T07:58:10.535Z,1674.00
2023-05-08T07:59:09.574Z,1679.00
2023-05-08T08:00:09.588Z,1675.00
2023-05-08T08:01:10.608Z,1675.00
2023-05-08T08:02:10.673Z,1674.00
2023-05-08T08:03:10.770Z,1671.00
2023-05-08T08:04:09.798Z,1669.00
2023-05-08T08:05:10.889Z,1668.00
2023-05-08T08:06:10.888Z,1663.00
2023-05-08T08:07:09.840Z,1663.00
2023-05-08T08:08:09.929Z,1661.00
2023-05-08T08:09:10.974Z,1657.00
2023-05-08T08:10:10.048Z,1651.00
2023-05-08T08:11:10.050Z,1645.00
2023-05-08T08:12:10.063Z,1640.00
2023-05-08T08:13:11.208Z,1639.00
2023-05-08T08:14:10.197Z,1641.00
2023-05-08T08:15:11.596Z,1640.00
2023-05-08T08:16:10.349Z,1638.00
2023-05-08T08:17:10.334Z,1637.00
2023-05-08T08:18:11.463Z,1640.00
2023-05-08T08:19:10.504Z,1642.00
2023-05-08T08:20:10.501Z,1642.00
2023-05-08T08:21:10.531Z,1643.00
2023-05-08T08:22:10.589Z,1642.00
2023-05-08T08:23:11.657Z,1640.00
2023-05-08T08:24:11.730Z,1636.00
2023-05-08T08:25:10.904Z,1636.00
2023-05-08T08:26:11.850Z,1638.00
2023-05-08T08:27:10.878Z,1646.00
2023-05-08T08:28:10.868Z,1646.00
2023-05-08T08:29:11.997Z,1652.00
2023-05-08T08:30:16.799Z,1658.00
2023-05-08T08:31:12.117Z,1668.00
2023-05-08T08:32:11.033Z,1674.00
2023-05-08T08:33:11.077Z,1687.00
2023-05-08T08:34:11.059Z,1704.00
2023-05-08T08:35:11.114Z,1710.00
2023-05-08T08:36:11.941Z,1717.00
2023-05-08T08:37:13.943Z,1721.00
2023-05-08T08:38:11.004Z,1724.00
2023-05-08T08:39:12.485Z,1725.00
2023-05-08T08:40:10.993Z,1724.00
2023-05-08T08:41:11.273Z,1722.00
2023-05-08T08:42:11.116Z,1720.00
2023-05-08T08:43:11.146Z,1718.00
2023-05-08T08:44:12.226Z,1715.00
2023-05-08T08:45:12.488Z,1730.00
2023-05-08T08:46:11.310Z,1756.00
2023-05-08T08:47:12.482Z,1764.00
2023-05-08T08:48:11.418Z,1761.00
2023-05-08T08:49:11.501Z,1758.00
2023-05-08T08:50:14.368Z,1757.00
2023-05-08T08:51:11.662Z,1762.00
2023-05-08T08:52:12.458Z,1776.00
2023-05-08T08:53:12.464Z,1781.00
2023-05-08T08:54:11.442Z,1785.00
2023-05-08T08:55:12.602Z,1792.00
2023-05-08T08:56:11.418Z,1799.00
2023-05-08T08:57:12.432Z,1795.00
2023-05-08T08:58:11.403Z,1781.00
2023-05-08T08:59:12.400Z,1768.00
2023-05-08T09:00:12.414Z,1715.00
2023-05-08T09:01:12.787Z,1701.00
2023-05-08T09:02:11.453Z,1678.00
2023-05-08T09:03:12.538Z,1655.00
2023-05-08T09:04:11.526Z,1641.00
2023-05-08T09:05:12.712Z,1648.00
2023-05-08T09:06:12.350Z,1650.00
2023-05-08T09:07:11.342Z,1651.00
2023-05-08T09:08:12.334Z,1643.00
2023-05-08T09:09:12.337Z,1637.00
2023-05-08T09:10:12.073Z,1631.00
2023-05-08T09:11:12.315Z,1631.00
2023-05-08T09:12:11.314Z,1628.00
2023-05-08T09:13:11.307Z,1629.00
2023-05-08T09:14:12.297Z,1633.00
2023-05-08T09:15:12.719Z,1639.00
2023-05-08T09:16:11.317Z,1639.00
2023-05-08T09:17:12.288Z,1644.00
2023-05-08T09:18:11.340Z,1644.00
2023-05-08T09:19:11.421Z,1647.00
2023-05-08T09:20:12.501Z,1645.00
2023-05-08T09:21:12.385Z,1649.00
2023-05-08T09:22:12.433Z,1650.00
2023-05-08T09:23:11.466Z,1654.00
2023-05-08T09:24:11.500Z,1662.00
2023-05-08T09:25:11.730Z,1662.00
2023-05-08T09:26:12.590Z,1656.00
2023-05-08T09:27:11.585Z,1655.00
2023-05-08T09:28:12.626Z,1657.00
2023-05-08T09:29:11.698Z,1657.00
2023-05-08T09:30:12.739Z,1656.00
2023-05-08T09:31:12.790Z,1652.00
2023-05-08T09:32:12.882Z,1649.00
2023-05-08T09:33:12.868Z,1645.00
2023-05-08T09:34:11.873Z,1639.00
2023-05-08T09:35:13.612Z,1632.00
2023-05-08T09:36:12.982Z,1628.00
2023-05-08T09:37:13.026Z,1637.00
2023-05-08T09:38:12.038Z,1644.00
2023-05-08T09:39:13.086Z,1639.00
2023-05-08T09:40:12.141Z,1637.00
2023-05-08T09:41:12.161Z,1635.00
2023-05-08T09:42:13.213Z,1634.00
2023-05-08T09:43:13.239Z,1634.00
2023-05-08T09:44:13.255Z,1635.00
2023-05-08T09:45:13.470Z,1633.00
2023-05-08T09:46:13.384Z,1628.00
2023-05-08T09:47:13.386Z,1631.00
2023-05-08T09:48:13.413Z,1631.00
2023-05-08T09:49:14.653Z,1628.00
2023-05-08T09:50:13.672Z,1625.00
2023-05-08T09:51:12.662Z,1621.00
2023-05-08T09:52:13.860Z,1615.00
2023-05-08T09:53:13.600Z,1615.00
2023-05-08T09:54:13.684Z,1611.00
2023-05-08T09:55:12.671Z,1609.00
2023-05-08T09:56:12.738Z,1607.00
2023-05-08T09:57:13.761Z,1603.00
2023-05-08T09:58:13.789Z,1600.00
2023-05-08T09:59:13.797Z,1595.00
2023-05-08T10:00:14.346Z,1595.00
2023-05-08T10:01:13.941Z,1594.00
2023-05-08T10:02:13.916Z,1590.00
2023-05-08T10:03:14.113Z,1587.00
2023-05-08T10:04:14.174Z,1582.00
2023-05-08T10:05:13.100Z,1578.00
2023-05-08T10:06:14.046Z,1573.00
2023-05-08T10:07:14.268Z,1571.00
2023-05-08T10:08:14.132Z,1570.00
2023-05-08T10:09:13.182Z,1571.00
2023-05-08T10:10:13.516Z,1571.00
2023-05-08T10:11:14.249Z,1565.00
2023-05-08T10:12:13.266Z,1560.00
2023-05-08T10:13:14.378Z,1560.00
2023-05-08T10:14:14.346Z,1558.00
2023-05-08T10:15:14.374Z,1551.00
2023-05-08T10:16:13.393Z,1545.00
2023-05-08T10:17:14.565Z,1541.00
2023-05-08T10:18:14.482Z,1536.00
2023-05-08T10:19:14.494Z,1530.00
2023-05-08T10:20:13.857Z,1526.00
2023-05-08T10:21:14.589Z,1519.00
2023-05-08T10:22:14.613Z,1514.00
2023-05-08T10:23:14.779Z,1509.00
2023-05-08T10:24:14.684Z,1505.00
2023-05-08T10:25:13.923Z,1496.00
2023-05-08T10:26:14.752Z,1491.00
2023-05-08T10:27:14.765Z,1485.00
2023-05-08T10:28:14.808Z,1482.00
2023-05-08T10:29:14.836Z,1476.00
2023-05-08T10:30:15.143Z,1471.00
2023-05-08T10:31:14.914Z,1471.00
2023-05-08T10:32:13.934Z,1467.00
2023-05-08T10:33:14.961Z,1461.00
2023-05-08T10:34:13.978Z,1458.00
2023-05-08T10:35:15.010Z,1449.00
2023-05-08T10:36:15.125Z,1447.00
2023-05-08T10:37:15.093Z,1447.00
2023-05-08T10:38:15.117Z,1444.00
2023-05-08T10:39:14.432Z,1440.00
2023-05-08T10:40:14.483Z,1439.00
2023-05-08T10:41:14.218Z,1438.00
2023-05-08T10:42:14.322Z,1435.00
2023-05-08T10:43:14.269Z,1432.00
2023-05-08T10:44:14.345Z,1442.00
2023-05-08T10:45:14.378Z,1435.00
2023-05-08T10:46:15.497Z,1433.00
2023-05-08T10:47:15.561Z,1431.00
2023-05-08T10:48:14.488Z,1431.00
2023-05-08T10:49:15.637Z,1430.00
2023-05-08T10:50:14.916Z,1430.00
2023-05-08T10:51:14.580Z,1430.00
2023-05-08T10:52:15.678Z,1429.00
2023-05-08T10:53:15.674Z,1431.00
2023-05-08T10:54:15.669Z,1431.00
2023-05-08T10:55:15.732Z,1429.00
2023-05-08T10:56:14.705Z,1428.00
2023-05-08T10:57:15.853Z,1428.00
2023-05-08T10:58:14.800Z,1426.00
2023-05-08T10:59:15.846Z,1426.00
2023-05-08T11:00:15.094Z,1424.00
2023-05-08T11:01:14.948Z,1424.00
2023-05-08T11:02:16.035Z,1421.00
2023-05-08T11:03:29.810Z,1417.00
2023-05-08T11:04:16.016Z,1416.00
2023-05-08T11:05:14.917Z,1415.00
2023-05-08T11:06:14.855Z,1416.00
2023-05-08T11:07:15.929Z,1416.00
2023-05-08T11:08:15.838Z,1414.00
2023-05-08T11:09:15.833Z,1416.00
2023-05-08T11:10:14.946Z,1418.00
2023-05-08T11:11:15.877Z,1415.00
2023-05-08T11:12:14.891Z,1419.00
2023-05-08T11:13:15.891Z,1417.00
2023-05-08T11:14:14.798Z,1417.00
2023-05-08T11:15:15.836Z,1418.00
2023-05-08T11:16:15.804Z,1420.00
2023-05-08T11:17:14.804Z,1416.00
2023-05-08T11:18:15.786Z,1417.00
2023-05-08T11:19:14.789Z,1416.00
2023-05-08T11:20:15.040Z,1420.00
2023-05-08T11:21:14.814Z,1422.00
2023-05-08T11:22:14.759Z,1418.00
2023-05-08T11:23:15.743Z,1419.00
2023-05-08T11:24:15.798Z,1421.00
2023-05-08T11:25:14.717Z,1420.00
2023-05-08T11:26:14.780Z,1417.00
2023-05-08T11:27:14.802Z,1413.00
2023-05-08T11:28:14.695Z,1413.00
2023-05-08T11:29:14.824Z,1414.00
2023-05-08T11:30:15.752Z,1406.00
2023-05-08T11:31:14.738Z,1401.00
2023-05-08T11:32:15.755Z,1399.00
2023-05-08T11:33:14.733Z,1394.00
2023-05-08T11:34:14.697Z,1385.00
2023-05-08T11:35:15.691Z,1376.00
2023-05-08T11:36:14.632Z,1359.00
2023-05-08T11:37:15.630Z,1358.00
2023-05-08T11:38:14.672Z,1356.00
2023-05-08T11:39:14.634Z,1352.00
2023-05-08T11:40:15.710Z,1346.00
2023-05-08T11:41:15.666Z,1341.00
2023-05-08T11:42:14.628Z,1337.00
2023-05-08T11:43:15.681Z,1334.00
2023-05-08T11:44:15.642Z,1326.00
2023-05-08T11:45:15.631Z,1317.00
2023-05-08T11:46:14.621Z,1307.00
2023-05-08T11:47:14.655Z,1300.00
2023-05-08T11:48:15.900Z,1289.00
2023-05-08T11:49:14.602Z,1282.00
2023-05-08T11:50:15.742Z,1272.00
2023-05-08T11:51:14.604Z,1258.00
2023-05-08T11:52:15.536Z,1241.00
2023-05-08T11:53:14.633Z,1230.00
2023-05-08T11:54:14.592Z,1216.00
2023-05-08T11:55:14.610Z,1198.00
2023-05-08T11:56:15.558Z,1187.00
2023-05-08T11:57:14.623Z,1173.00
2023-05-08T11:58:14.608Z,1161.00
2023-05-08T11:59:15.695Z,1150.00
2023-05-08T12:00:14.928Z,1141.00
2023-05-08T12:01:14.791Z,1127.00
2023-05-08T12:02:14.705Z,1117.00
2023-05-08T12:03:15.925Z,1094.00
2023-05-08T12:04:14.982Z,1081.00
2023-05-08T12:05:14.880Z,1067.00
2023-05-08T12:06:14.833Z,1052.00
2023-05-08T12:07:14.946Z,1029.00
2023-05-08T12:08:15.873Z,1012.00
2023-05-08T12:09:14.936Z,1007.00
2023-05-08T12:10:16.823Z,999.00
2023-05-08T12:11:15.060Z,986.00
2023-05-08T12:12:16.041Z,979.00
2023-05-08T12:13:16.217Z,968.00
2023-05-08T12:14:15.101Z,962.00
2023-05-08T12:15:15.311Z,951.00
2023-05-08T12:16:16.157Z,932.00
2023-05-08T12:17:15.264Z,923.00
2023-05-08T12:18:16.275Z,904.00
2023-05-08T12:19:15.274Z,894.00
2023-05-08T12:20:15.893Z,885.00
2023-05-08T12:21:16.350Z,872.00
2023-05-08T12:22:16.387Z,845.00
2023-05-08T12:23:16.429Z,832.00
2023-05-08T12:24:15.437Z,811.00
2023-05-08T12:25:15.732Z,762.00
2023-05-08T12:26:15.511Z,753.00
2023-05-08T12:27:15.475Z,735.00
2023-05-08T12:28:16.472Z,718.00
2023-05-08T12:29:15.495Z,711.00
2023-05-08T12:30:17.138Z,701.00
2023-05-08T12:31:15.644Z,691.00
2023-05-08T12:32:15.633Z,685.00
2023-05-08T12:33:16.705Z,682.00
2023-05-08T12:34:15.683Z,685.00
2023-05-08T12:35:15.783Z,723.00
2023-05-08T12:36:15.761Z,753.00
2023-05-08T12:37:15.843Z,774.00
2023-05-08T12:38:15.924Z,834.00
2023-05-08T12:39:15.787Z,837.00
2023-05-08T12:40:16.789Z,844.00
2023-05-08T12:41:15.792Z,857.00
2023-05-08T12:42:16.810Z,926.00
2023-05-08T12:43:16.831Z,972.00
2023-05-08T12:44:16.852Z,982.00
2023-05-08T12:45:15.896Z,984.00
2023-05-08T12:46:15.884Z,1027.00
2023-05-08T12:47:15.930Z,1041.00
2023-05-08T12:48:16.809Z,1050.00
2023-05-08T12:49:15.821Z,1076.00
2023-05-08T12:50:16.883Z,1105.00
2023-05-08T12:51:16.938Z,1185.00
2023-05-08T12:52:16.951Z,1168.00
2023-05-08T12:53:17.028Z,1148.00
2023-05-08T12:54:16.064Z,1142.00
2023-05-08T12:55:16.119Z,1133.00
2023-05-08T12:56:17.138Z,1133.00
2023-05-08T12:57:17.157Z,1161.00
2023-05-08T12:58:17.207Z,1192.00
2023-05-08T12:59:17.157Z,1215.00
2023-05-08T13:00:16.425Z,1231.00
2023-05-08T13:01:16.152Z,1268.00
2023-05-08T13:02:16.508Z,1332.00
2023-05-08T13:03:16.480Z,1349.00
2023-05-08T13:04:17.410Z,1409.00
2023-05-08T13:05:16.385Z,1437.00
2023-05-08T13:06:17.435Z,1454.00
2023-05-08T13:07:17.487Z,1482.00
2023-05-08T13:08:17.545Z,1491.00
2023-05-08T13:09:16.618Z,1498.00
2023-05-08T13:10:17.671Z,1518.00
2023-05-08T13:11:16.737Z,1547.00
2023-05-08T13:12:17.786Z,1554.00
2023-05-08T13:13:16.902Z,1578.00
2023-05-08T13:14:17.913Z,1584.00
2023-05-08T13:15:17.980Z,1606.00
2023-05-08T13:16:16.971Z,1619.00
2023-05-08T13:17:17.998Z,1629.00
2023-05-08T13:18:17.120Z,1624.00
2023-05-08T13:19:17.212Z,1635.00
2023-05-08T13:20:18.153Z,1642.00
2023-05-08T13:21:17.217Z,1632.00
2023-05-08T13:22:17.249Z,1620.00
2023-05-08T13:23:18.273Z,1546.00
2023-05-08T13:24:18.293Z,1626.00
2023-05-08T13:25:18.310Z,1629.00
2023-05-08T13:26:18.326Z,1543.00
2023-05-08T13:27:17.328Z,1561.00
2023-05-08T13:28:17.358Z,1570.00
2023-05-08T13:29:18.345Z,1568.00
2023-05-08T13:30:18.353Z,1584.00
2023-05-08T13:31:17.416Z,1579.00
2023-05-08T13:32:17.510Z,1566.00
2023-05-08T13:33:18.425Z,1560.00
2023-05-08T13:34:18.450Z,1552.00
2023-05-08T13:35:17.851Z,1543.00
2023-05-08T13:36:17.446Z,1524.00
2023-05-08T13:37:18.448Z,1522.00
2023-05-08T13:38:18.469Z,1543.00
2023-05-08T13:39:18.485Z,1511.00
2023-05-08T13:40:17.506Z,1565.00
2023-05-08T13:41:18.525Z,1561.00
2023-05-08T13:42:18.535Z,1484.00
2023-05-08T13:43:18.522Z,1573.00
2023-05-08T13:44:18.527Z,1565.00
2023-05-08T13:45:18.528Z,1535.00
2023-05-08T13:46:18.619Z,1554.00
2023-05-08T13:47:18.513Z,1558.00
2023-05-08T13:48:17.526Z,1566.00
2023-05-08T13:49:17.514Z,1576.00
2023-05-08T13:50:18.528Z,1594.00
2023-05-08T13:51:18.641Z,1567.00
2023-05-08T13:52:17.511Z,1571.00
2023-05-08T13:53:17.532Z,1385.00
2023-05-08T13:54:17.537Z,1516.00
2023-05-08T13:55:17.714Z,1514.00
2023-05-08T13:56:18.575Z,1463.00
2023-05-08T13:57:17.599Z,1439.00
2023-05-08T13:58:18.632Z,1303.00
2023-05-08T13:59:17.639Z,1360.00
2023-05-08T14:00:17.665Z,1330.00
2023-05-08T14:01:26.364Z,1307.00
2023-05-08T14:02:18.849Z,1356.00
2023-05-08T14:03:18.777Z,1327.00
2023-05-08T14:04:18.683Z,1313.00
2023-05-08T14:05:17.698Z,1249.00
2023-05-08T14:06:18.659Z,1224.00
2023-05-08T14:07:18.801Z,1231.00
2023-05-08T14:08:18.693Z,1114.00
2023-05-08T14:09:18.649Z,1145.00
2023-05-08T14:10:17.634Z,1181.00
2023-05-08T14:11:18.630Z,1041.00
2023-05-08T14:12:17.627Z,926.00
2023-05-08T14:13:17.653Z,952.00
2023-05-08T14:14:17.630Z,892.00
2023-05-08T14:15:18.633Z,938.00
2023-05-08T14:16:17.724Z,778.00
2023-05-08T14:17:18.710Z,731.00
2023-05-08T14:18:17.735Z,651.00
2023-05-08T14:19:18.774Z,638.00
2023-05-08T14:20:18.821Z,738.00
2023-05-08T14:21:19.018Z,626.00
2023-05-08T14:22:18.105Z,555.00
2023-05-08T14:23:19.169Z,562.00
2023-05-08T14:24:18.986Z,548.00
2023-05-08T14:25:18.195Z,575.00
2023-05-08T14:26:19.054Z,589.00
2023-05-08T14:27:18.133Z,653.00
2023-05-08T14:28:19.127Z,563.00
2023-05-08T14:29:18.141Z,540.00
2023-05-08T14:30:19.150Z,534.00
2023-05-08T14:31:18.171Z,522.00
2023-05-08T14:32:19.151Z,512.00
2023-05-08T14:33:19.594Z,505.00
2023-05-08T14:34:18.173Z,465.00
2023-05-08T14:35:19.178Z,465.00
2023-05-08T14:36:19.168Z,500.00
2023-05-08T14:37:18.160Z,453.00
2023-05-08T14:38:18.176Z,472.00
2023-05-08T14:39:18.374Z,439.00
2023-05-08T14:40:18.276Z,444.00
2023-05-08T14:41:19.347Z,436.00
2023-05-08T14:42:23.321Z,437.00
2023-05-08T14:43:19.351Z,470.00
2023-05-08T14:44:18.346Z,418.00
2023-05-08T14:45:19.360Z,432.00
2023-05-08T14:46:18.401Z,466.00
2023-05-08T14:47:19.338Z,421.00
2023-05-08T14:48:18.307Z,428.00
2023-05-08T14:49:25.345Z,460.00
2023-05-08T14:50:19.310Z,451.00
2023-05-08T14:51:18.286Z,537.00
2023-05-08T14:52:19.272Z,440.00
2023-05-08T14:53:18.354Z,439.00
2023-05-08T14:54:19.394Z,449.00
2023-05-08T14:55:19.004Z,444.00
2023-05-08T14:56:18.314Z,427.00
2023-05-08T14:57:19.249Z,429.00
2023-05-08T14:58:18.242Z,428.00
2023-05-08T14:59:19.250Z,443.00
2023-05-08T15:00:18.287Z,422.00
2023-05-08T15:01:18.299Z,415.00
2023-05-08T15:02:19.247Z,445.00
2023-05-08T15:03:19.314Z,528.00
2023-05-08T15:04:18.294Z,454.00
2023-05-08T15:05:20.302Z,401.00
2023-05-08T15:06:18.183Z,410.00
2023-05-08T15:07:18.192Z,420.00
2023-05-08T15:08:18.192Z,448.00
2023-05-08T15:09:18.199Z,421.00
2023-05-08T15:10:18.187Z,431.00
2023-05-08T15:11:20.030Z,418.00
2023-05-08T15:12:18.200Z,411.00
2023-05-08T15:13:19.329Z,422.00
2023-05-08T15:14:18.302Z,422.00
2023-05-08T15:15:19.349Z,425.00
2023-05-08T15:16:18.419Z,429.00
2023-05-08T15:17:19.384Z,448.00
2023-05-08T15:18:19.433Z,460.00
2023-05-08T15:19:19.488Z,462.00
2023-05-08T15:20:19.560Z,458.00
2023-05-08T15:21:19.603Z,457.00
2023-05-08T15:22:19.623Z,456.00
2023-05-08T15:23:19.629Z,454.00
2023-05-08T15:24:18.800Z,455.00
2023-05-08T15:25:18.645Z,457.00
2023-05-08T15:26:19.648Z,456.00
2023-05-08T15:27:19.785Z,454.00
2023-05-08T15:28:18.677Z,454.00
2023-05-08T15:29:18.756Z,455.00
